Погода Зубковона 2 недели

Брестская область, Белоруссия

17 - 30 июня
  • 17июня
    Сегодня
    +14°
    +26°
    Ясно и безоблачно
    ВремяПогодаТемператураВлажностьДавлениеВетер, м/сВероятность осадков
    00:00Небольшая облачность, ливень+16°C96 %749 мм2.6 м/с17 %
    03:00Облачно с прояснениями+15°C97 %748 мм1.5 м/с6 %
    06:00Небольшая облачность+15°C97 %749 мм2.7 м/с2 %
    09:00Облачно с прояснениями+20°C85 %749 мм3.3 м/с2 %
    12:00Облачно с прояснениями+24°C70 %749 мм4.0 м/с22 %
    15:00Ясно и безоблачно+25°C58 %749 мм5.4 м/с20 %
    18:00Практически безоблачно+25°C58 %749 мм5.1 м/с35 %
    21:00Ясно и безоблачно+22°C69 %750 мм3.3 м/с7 %
  • 18июня
    Вторник
    +16°
    +28°
    Облачно с прояснениями
    ВремяПогодаТемператураВлажностьДавлениеВетер, м/сВероятность осадков
    00:00Ясно и безоблачно+18°C80 %751 мм3.4 м/с2 %
    03:00Ясно и безоблачно+16°C81 %752 мм3.2 м/с2 %
    06:00Ясно и безоблачно+15°C85 %752 мм2.6 м/с2 %
    09:00Ясно и безоблачно+21°C71 %753 мм2.3 м/с2 %
    12:00Облачно с прояснениями+26°C46 %754 мм3.9 м/с6 %
    15:00Облачно с прояснениями+27°C51 %753 мм4.6 м/с48 %
    18:00Небольшая облачность+28°C53 %753 мм4.6 м/с23 %
    21:00Облачно с прояснениями+23°C77 %753 мм1.8 м/с6 %
  • 19июня
    Среда
    +13°
    +30°
    Облачно с прояснениями
    ВремяПогодаТемператураВлажностьДавлениеВетер, м/сВероятность осадков
    00:00Облачно с прояснениями+19°C89 %753 мм1.8 м/с2 %
    03:00Небольшая облачность+17°C95 %753 мм2.0 м/с2 %
    06:00Облачно с прояснениями+17°C92 %753 мм2.4 м/с2 %
    09:00Практически безоблачно+23°C70 %753 мм3.8 м/с2 %
    12:00Небольшая облачность+28°C48 %752 мм5.9 м/с2 %
    15:00Облачно с прояснениями+30°C39 %751 мм6.3 м/с3 %
    18:00Ясно и безоблачно+30°C44 %749 мм5.8 м/с7 %
    21:00Небольшая облачность+26°C54 %749 мм4.8 м/с30 %
  • 20июня
    Четверг
    +11°
    +22°
    Ясно и безоблачно
    ВремяПогодаТемператураВлажностьДавлениеВетер, м/сВероятность осадков
    00:00Облачно с прояснениями+20°C81 %749 мм2.0 м/с37 %
    03:00Пасмурно, дожди с грозами+17°C91 %750 мм6.3 м/с53 %
    06:00Небольшая облачность и лёгкий дождик+13°C84 %753 мм6.4 м/с52 %
    09:00Ясно и безоблачно+15°C74 %755 мм5.6 м/с22 %
    12:00Ясно и безоблачно+18°C62 %756 мм4.9 м/с11 %
    15:00Ясно и безоблачно+20°C55 %756 мм4.4 м/с4 %
    18:00Ясно и безоблачно+22°C52 %755 мм3.8 м/с2 %
    21:00Ясно и безоблачно+19°C76 %755 мм1.9 м/с2 %
  • 21июня
    Пятница
    +11°
    +25°
    Ясно и безоблачно
    ВремяПогодаТемператураВлажностьДавлениеВетер, м/сВероятность осадков
    00:00Практически безоблачно+15°C73 %755 мм2.4 м/с2 %
    03:00Практически безоблачно+12°C76 %755 мм2.4 м/с2 %
    06:00Практически безоблачно+13°C80 %755 мм2.1 м/с2 %
    09:00Небольшая облачность+18°C65 %755 мм2.7 м/с2 %
    12:00Небольшая облачность+22°C46 %755 мм4.0 м/с2 %
    15:00Ясно и безоблачно+25°C45 %754 мм4.0 м/с2 %
    18:00Ясно и безоблачно+25°C45 %753 мм4.2 м/с3 %
    21:00Ясно и безоблачно+21°C68 %753 мм1.9 м/с2 %
Мы используем cookies
Соглашаюсь